sensor_id;sensor_type;location;lat;lon;timestamp;P1;durP1;ratioP1;P2;durP2;ratioP2
1308;SDS011;647;48.840;9.314;2024-01-16T00:00:19;56.03;;;3.35;;
1308;SDS011;647;48.840;9.314;2024-01-16T00:02:46;55.70;;;2.50;;
1308;SDS011;647;48.840;9.314;2024-01-16T00:05:13;55.90;;;2.90;;
1308;SDS011;647;48.840;9.314;2024-01-16T00:07:40;55.80;;;2.50;;
1308;SDS011;647;48.840;9.314;2024-01-16T00:10:07;56.00;;;2.70;;
1308;SDS011;647;48.840;9.314;2024-01-16T00:12:36;55.88;;;2.78;;
1308;SDS011;647;48.840;9.314;2024-01-16T00:15:05;56.05;;;3.10;;
1308;SDS011;647;48.840;9.314;2024-01-16T00:17:32;55.60;;;2.40;;
1308;SDS011;647;48.840;9.314;2024-01-16T00:19:59;55.60;;;2.28;;
1308;SDS011;647;48.840;9.314;2024-01-16T00:22:26;55.80;;;2.60;;
1308;SDS011;647;48.840;9.314;2024-01-16T00:24:53;56.00;;;3.00;;
1308;SDS011;647;48.840;9.314;2024-01-16T00:27:20;55.67;;;2.70;;
1308;SDS011;647;48.840;9.314;2024-01-16T00:29:49;55.80;;;2.75;;
1308;SDS011;647;48.840;9.314;2024-01-16T00:32:16;55.75;;;2.42;;
1308;SDS011;647;48.840;9.314;2024-01-16T00:34:43;56.10;;;2.83;;
1308;SDS011;647;48.840;9.314;2024-01-16T00:37:10;55.78;;;2.53;;
1308;SDS011;647;48.840;9.314;2024-01-16T00:39:37;55.72;;;2.60;;
1308;SDS011;647;48.840;9.314;2024-01-16T00:42:04;55.90;;;2.40;;
1308;SDS011;647;48.840;9.314;2024-01-16T00:44:32;55.88;;;2.90;;
1308;SDS011;647;48.840;9.314;2024-01-16T00:47:01;55.80;;;2.50;;
1308;SDS011;647;48.840;9.314;2024-01-16T00:49:30;55.95;;;2.65;;
1308;SDS011;647;48.840;9.314;2024-01-16T00:51:57;55.65;;;2.30;;
1308;SDS011;647;48.840;9.314;2024-01-16T00:54:24;55.80;;;2.50;;
1308;SDS011;647;48.840;9.314;2024-01-16T00:56:51;55.83;;;2.70;;
1308;SDS011;647;48.840;9.314;2024-01-16T00:59:20;55.78;;;2.65;;
1308;SDS011;647;48.840;9.314;2024-01-16T01:01:47;55.85;;;2.40;;
1308;SDS011;647;48.840;9.314;2024-01-16T01:04:16;56.10;;;2.85;;
1308;SDS011;647;48.840;9.314;2024-01-16T01:06:43;55.58;;;2.47;;
1308;SDS011;647;48.840;9.314;2024-01-16T01:09:10;55.97;;;2.80;;
1308;SDS011;647;48.840;9.314;2024-01-16T01:11:37;55.80;;;2.30;;
1308;SDS011;647;48.840;9.314;2024-01-16T01:14:05;55.80;;;2.80;;
1308;SDS011;647;48.840;9.314;2024-01-16T01:16:32;55.80;;;2.70;;
1308;SDS011;647;48.840;9.314;2024-01-16T01:18:59;57.42;;;3.47;;
1308;SDS011;647;48.840;9.314;2024-01-16T01:21:27;55.90;;;2.70;;
1308;SDS011;647;48.840;9.314;2024-01-16T01:23:54;55.67;;;2.67;;
1308;SDS011;647;48.840;9.314;2024-01-16T01:26:22;55.70;;;2.88;;
1308;SDS011;647;48.840;9.314;2024-01-16T01:28:49;55.70;;;2.40;;
1308;SDS011;647;48.840;9.314;2024-01-16T01:31:16;55.80;;;2.60;;
1308;SDS011;647;48.840;9.314;2024-01-16T01:33:43;55.88;;;2.60;;
1308;SDS011;647;48.840;9.314;2024-01-16T01:36:10;55.67;;;2.80;;
1308;SDS011;647;48.840;9.314;2024-01-16T01:38:38;55.78;;;2.50;;
1308;SDS011;647;48.840;9.314;2024-01-16T01:41:05;55.67;;;2.90;;
1308;SDS011;647;48.840;9.314;2024-01-16T01:43:33;55.90;;;2.97;;
1308;SDS011;647;48.840;9.314;2024-01-16T01:46:08;55.50;;;2.53;;
1308;SDS011;647;48.840;9.314;2024-01-16T01:48:36;55.90;;;2.90;;
1308;SDS011;647;48.840;9.314;2024-01-16T01:51:04;55.70;;;2.97;;
1308;SDS011;647;48.840;9.314;2024-01-16T01:53:32;55.70;;;2.50;;
1308;SDS011;647;48.840;9.314;2024-01-16T01:56:02;55.80;;;2.85;;
1308;SDS011;647;48.840;9.314;2024-01-16T01:58:30;55.85;;;2.50;;
1308;SDS011;647;48.840;9.314;2024-01-16T02:00:57;55.60;;;2.35;;
1308;SDS011;647;48.840;9.314;2024-01-16T02:03:27;55.80;;;2.50;;
1308;SDS011;647;48.840;9.314;2024-01-16T02:05:54;56.17;;;2.88;;
1308;SDS011;647;48.840;9.314;2024-01-16T02:08:22;55.78;;;2.63;;
1308;SDS011;647;48.840;9.314;2024-01-16T02:10:49;55.78;;;2.60;;
1308;SDS011;647;48.840;9.314;2024-01-16T02:13:18;55.70;;;2.40;;
1308;SDS011;647;48.840;9.314;2024-01-16T02:15:48;55.80;;;2.65;;
1308;SDS011;647;48.840;9.314;2024-01-16T02:18:15;55.83;;;2.53;;
1308;SDS011;647;48.840;9.314;2024-01-16T02:20:42;55.70;;;2.60;;
1308;SDS011;647;48.840;9.314;2024-01-16T02:23:10;55.60;;;2.30;;
1308;SDS011;647;48.840;9.314;2024-01-16T02:25:40;56.10;;;3.08;;
1308;SDS011;647;48.840;9.314;2024-01-16T02:28:08;55.80;;;2.80;;
1308;SDS011;647;48.840;9.314;2024-01-16T02:30:35;55.80;;;3.05;;
1308;SDS011;647;48.840;9.314;2024-01-16T02:33:02;55.90;;;2.65;;
1308;SDS011;647;48.840;9.314;2024-01-16T02:35:29;55.85;;;2.70;;
1308;SDS011;647;48.840;9.314;2024-01-16T02:37:56;55.85;;;2.65;;
1308;SDS011;647;48.840;9.314;2024-01-16T02:40:25;55.90;;;2.92;;
1308;SDS011;647;48.840;9.314;2024-01-16T02:42:53;55.67;;;2.85;;
1308;SDS011;647;48.840;9.314;2024-01-16T02:45:21;55.85;;;2.92;;
1308;SDS011;647;48.840;9.314;2024-01-16T02:47:48;56.08;;;2.92;;
1308;SDS011;647;48.840;9.314;2024-01-16T02:50:15;55.88;;;2.50;;
1308;SDS011;647;48.840;9.314;2024-01-16T02:52:42;55.80;;;2.85;;
1308;SDS011;647;48.840;9.314;2024-01-16T02:55:09;55.78;;;2.95;;
1308;SDS011;647;48.840;9.314;2024-01-16T02:57:36;55.80;;;2.30;;
1308;SDS011;647;48.840;9.314;2024-01-16T03:00:06;55.58;;;2.88;;
1308;SDS011;647;48.840;9.314;2024-01-16T03:02:33;55.67;;;2.45;;
1308;SDS011;647;48.840;9.314;2024-01-16T03:05:02;55.90;;;2.80;;
1308;SDS011;647;48.840;9.314;2024-01-16T03:07:30;56.00;;;2.70;;
1308;SDS011;647;48.840;9.314;2024-01-16T03:09:57;55.78;;;2.85;;
1308;SDS011;647;48.840;9.314;2024-01-16T03:12:24;56.08;;;2.95;;
1308;SDS011;647;48.840;9.314;2024-01-16T03:14:51;55.58;;;2.80;;
1308;SDS011;647;48.840;9.314;2024-01-16T03:17:20;56.00;;;3.00;;
1308;SDS011;647;48.840;9.314;2024-01-16T03:19:47;55.67;;;2.50;;
1308;SDS011;647;48.840;9.314;2024-01-16T03:22:14;55.78;;;2.85;;
1308;SDS011;647;48.840;9.314;2024-01-16T03:24:42;55.90;;;2.90;;
1308;SDS011;647;48.840;9.314;2024-01-16T03:27:09;55.80;;;2.85;;
1308;SDS011;647;48.840;9.314;2024-01-16T03:29:36;55.90;;;2.90;;
1308;SDS011;647;48.840;9.314;2024-01-16T03:32:03;55.85;;;2.70;;
1308;SDS011;647;48.840;9.314;2024-01-16T03:34:32;55.78;;;2.50;;
1308;SDS011;647;48.840;9.314;2024-01-16T03:36:59;55.95;;;2.70;;
1308;SDS011;647;48.840;9.314;2024-01-16T03:39:26;55.90;;;3.00;;
1308;SDS011;647;48.840;9.314;2024-01-16T03:41:53;55.80;;;2.70;;
1308;SDS011;647;48.840;9.314;2024-01-16T03:44:20;55.60;;;2.60;;
1308;SDS011;647;48.840;9.314;2024-01-16T03:46:47;55.70;;;2.90;;
1308;SDS011;647;48.840;9.314;2024-01-16T03:49:14;56.10;;;2.97;;
1308;SDS011;647;48.840;9.314;2024-01-16T03:51:43;55.67;;;2.40;;
1308;SDS011;647;48.840;9.314;2024-01-16T03:54:11;55.72;;;2.83;;
1308;SDS011;647;48.840;9.314;2024-01-16T03:56:39;55.90;;;2.60;;
1308;SDS011;647;48.840;9.314;2024-01-16T03:59:06;56.03;;;3.22;;
1308;SDS011;647;48.840;9.314;2024-01-16T04:01:33;55.88;;;2.97;;
1308;SDS011;647;48.840;9.314;2024-01-16T04:04:02;55.72;;;2.70;;
1308;SDS011;647;48.840;9.314;2024-01-16T04:06:31;55.90;;;2.45;;
1308;SDS011;647;48.840;9.314;2024-01-16T04:08:59;55.75;;;2.33;;
1308;SDS011;647;48.840;9.314;2024-01-16T04:11:28;55.78;;;2.78;;
1308;SDS011;647;48.840;9.314;2024-01-16T04:13:55;56.05;;;2.80;;
1308;SDS011;647;48.840;9.314;2024-01-16T04:16:22;56.00;;;2.90;;
1308;SDS011;647;48.840;9.314;2024-01-16T04:18:49;55.80;;;2.60;;
1308;SDS011;647;48.840;9.314;2024-01-16T04:21:16;56.08;;;3.00;;
1308;SDS011;647;48.840;9.314;2024-01-16T04:23:43;55.90;;;2.80;;
1308;SDS011;647;48.840;9.314;2024-01-16T04:26:12;55.78;;;2.55;;
1308;SDS011;647;48.840;9.314;2024-01-16T04:28:39;55.58;;;2.50;;
1308;SDS011;647;48.840;9.314;2024-01-16T04:31:07;55.90;;;2.45;;
1308;SDS011;647;48.840;9.314;2024-01-16T04:33:36;56.10;;;3.20;;
1308;SDS011;647;48.840;9.314;2024-01-16T04:36:04;56.08;;;2.85;;
1308;SDS011;647;48.840;9.314;2024-01-16T04:38:31;56.10;;;3.55;;
1308;SDS011;647;48.840;9.314;2024-01-16T04:41:00;56.00;;;2.50;;
1308;SDS011;647;48.840;9.314;2024-01-16T04:43:29;56.00;;;2.70;;
1308;SDS011;647;48.840;9.314;2024-01-16T04:45:56;55.42;;;2.60;;
1308;SDS011;647;48.840;9.314;2024-01-16T04:48:23;56.10;;;2.75;;
1308;SDS011;647;48.840;9.314;2024-01-16T04:50:50;56.20;;;2.83;;
1308;SDS011;647;48.840;9.314;2024-01-16T04:53:17;56.00;;;2.70;;
1308;SDS011;647;48.840;9.314;2024-01-16T04:55:44;55.90;;;2.53;;
1308;SDS011;647;48.840;9.314;2024-01-16T04:58:11;56.03;;;2.90;;
1308;SDS011;647;48.840;9.314;2024-01-16T05:00:40;56.00;;;2.45;;
1308;SDS011;647;48.840;9.314;2024-01-16T05:03:07;55.78;;;2.40;;
1308;SDS011;647;48.840;9.314;2024-01-16T05:05:34;55.80;;;2.63;;
1308;SDS011;647;48.840;9.314;2024-01-16T05:08:01;55.88;;;3.15;;
1308;SDS011;647;48.840;9.314;2024-01-16T05:10:28;56.20;;;3.42;;
1308;SDS011;647;48.840;9.314;2024-01-16T05:12:55;55.88;;;2.80;;
1308;SDS011;647;48.840;9.314;2024-01-16T05:15:22;56.00;;;2.80;;
1308;SDS011;647;48.840;9.314;2024-01-16T05:17:51;55.95;;;2.70;;
1308;SDS011;647;48.840;9.314;2024-01-16T05:20:19;55.95;;;2.92;;
1308;SDS011;647;48.840;9.314;2024-01-16T05:22:46;56.08;;;2.90;;
1308;SDS011;647;48.840;9.314;2024-01-16T05:25:13;55.75;;;2.65;;
1308;SDS011;647;48.840;9.314;2024-01-16T05:27:42;55.63;;;3.15;;
1308;SDS011;647;48.840;9.314;2024-01-16T05:30:09;60.13;;;3.72;;
1308;SDS011;647;48.840;9.314;2024-01-16T05:32:37;55.60;;;2.50;;
1308;SDS011;647;48.840;9.314;2024-01-16T05:35:07;55.90;;;2.80;;
1308;SDS011;647;48.840;9.314;2024-01-16T05:37:35;55.90;;;3.00;;
1308;SDS011;647;48.840;9.314;2024-01-16T05:40:03;55.90;;;2.60;;
1308;SDS011;647;48.840;9.314;2024-01-16T05:42:32;55.90;;;2.50;;
1308;SDS011;647;48.840;9.314;2024-01-16T05:44:59;55.47;;;2.38;;
1308;SDS011;647;48.840;9.314;2024-01-16T05:47:27;55.78;;;2.60;;
1308;SDS011;647;48.840;9.314;2024-01-16T05:49:55;57.10;;;3.38;;
1308;SDS011;647;48.840;9.314;2024-01-16T05:52:24;55.90;;;2.80;;
1308;SDS011;647;48.840;9.314;2024-01-16T05:54:51;55.70;;;2.80;;
1308;SDS011;647;48.840;9.314;2024-01-16T05:57:22;55.90;;;2.60;;
1308;SDS011;647;48.840;9.314;2024-01-16T05:59:49;55.90;;;2.50;;
1308;SDS011;647;48.840;9.314;2024-01-16T06:02:16;55.90;;;2.60;;
1308;SDS011;647;48.840;9.314;2024-01-16T06:04:43;56.15;;;3.35;;
1308;SDS011;647;48.840;9.314;2024-01-16T06:07:11;57.58;;;4.18;;
1308;SDS011;647;48.840;9.314;2024-01-16T06:09:39;56.10;;;2.90;;
1308;SDS011;647;48.840;9.314;2024-01-16T06:12:07;56.10;;;2.60;;
1308;SDS011;647;48.840;9.314;2024-01-16T06:14:34;55.78;;;2.60;;
1308;SDS011;647;48.840;9.314;2024-01-16T06:17:01;55.83;;;2.70;;
1308;SDS011;647;48.840;9.314;2024-01-16T06:19:30;55.88;;;2.65;;
1308;SDS011;647;48.840;9.314;2024-01-16T06:21:58;55.88;;;2.60;;
1308;SDS011;647;48.840;9.314;2024-01-16T06:24:25;56.30;;;2.97;;
1308;SDS011;647;48.840;9.314;2024-01-16T06:26:53;55.90;;;2.92;;
1308;SDS011;647;48.840;9.314;2024-01-16T06:29:20;55.88;;;2.60;;
1308;SDS011;647;48.840;9.314;2024-01-16T06:31:47;55.58;;;2.60;;
1308;SDS011;647;48.840;9.314;2024-01-16T06:34:15;55.75;;;2.75;;
1308;SDS011;647;48.840;9.314;2024-01-16T06:36:42;55.97;;;2.70;;
1308;SDS011;647;48.840;9.314;2024-01-16T06:39:10;56.00;;;3.15;;
1308;SDS011;647;48.840;9.314;2024-01-16T06:41:39;55.88;;;2.80;;
1308;SDS011;647;48.840;9.314;2024-01-16T06:44:07;55.90;;;2.75;;
1308;SDS011;647;48.840;9.314;2024-01-16T06:46:34;55.80;;;2.80;;
1308;SDS011;647;48.840;9.314;2024-01-16T06:49:01;56.10;;;2.70;;
1308;SDS011;647;48.840;9.314;2024-01-16T06:51:28;55.75;;;2.95;;
1308;SDS011;647;48.840;9.314;2024-01-16T06:53:55;56.00;;;2.95;;
1308;SDS011;647;48.840;9.314;2024-01-16T06:56:22;55.83;;;2.50;;
1308;SDS011;647;48.840;9.314;2024-01-16T06:58:50;55.78;;;2.60;;
1308;SDS011;647;48.840;9.314;2024-01-16T07:01:19;55.80;;;2.78;;
1308;SDS011;647;48.840;9.314;2024-01-16T07:03:46;55.85;;;2.60;;
1308;SDS011;647;48.840;9.314;2024-01-16T07:06:13;55.70;;;2.40;;
1308;SDS011;647;48.840;9.314;2024-01-16T07:08:40;55.80;;;2.60;;
1308;SDS011;647;48.840;9.314;2024-01-16T07:11:07;56.00;;;2.83;;
1308;SDS011;647;48.840;9.314;2024-01-16T07:13:38;55.90;;;2.50;;
1308;SDS011;647;48.840;9.314;2024-01-16T07:16:05;55.67;;;2.50;;
1308;SDS011;647;48.840;9.314;2024-01-16T07:18:33;55.85;;;2.50;;
1308;SDS011;647;48.840;9.314;2024-01-16T07:21:00;55.97;;;2.60;;
1308;SDS011;647;48.840;9.314;2024-01-16T07:23:28;55.70;;;2.53;;
1308;SDS011;647;48.840;9.314;2024-01-16T07:25:55;55.88;;;2.70;;
1308;SDS011;647;48.840;9.314;2024-01-16T07:28:22;55.75;;;2.60;;
1308;SDS011;647;48.840;9.314;2024-01-16T07:30:49;55.67;;;2.83;;
1308;SDS011;647;48.840;9.314;2024-01-16T07:33:19;55.80;;;2.70;;
1308;SDS011;647;48.840;9.314;2024-01-16T07:35:47;55.80;;;2.65;;
1308;SDS011;647;48.840;9.314;2024-01-16T07:38:14;55.90;;;2.60;;
1308;SDS011;647;48.840;9.314;2024-01-16T07:40:41;55.88;;;2.80;;
1308;SDS011;647;48.840;9.314;2024-01-16T07:43:08;55.90;;;3.03;;
1308;SDS011;647;48.840;9.314;2024-01-16T07:45:35;56.28;;;3.35;;
1308;SDS011;647;48.840;9.314;2024-01-16T07:48:03;55.90;;;2.72;;
1308;SDS011;647;48.840;9.314;2024-01-16T07:50:30;55.95;;;3.15;;
1308;SDS011;647;48.840;9.314;2024-01-16T07:52:59;55.90;;;2.60;;
1308;SDS011;647;48.840;9.314;2024-01-16T07:55:26;55.80;;;3.00;;
1308;SDS011;647;48.840;9.314;2024-01-16T07:57:53;55.70;;;2.58;;
1308;SDS011;647;48.840;9.314;2024-01-16T08:00:21;55.58;;;2.72;;
1308;SDS011;647;48.840;9.314;2024-01-16T08:02:48;55.70;;;2.60;;
1308;SDS011;647;48.840;9.314;2024-01-16T08:05:15;55.78;;;2.60;;
1308;SDS011;647;48.840;9.314;2024-01-16T08:07:42;55.60;;;2.70;;
1308;SDS011;647;48.840;9.314;2024-01-16T08:10:10;55.47;;;2.50;;
1308;SDS011;647;48.840;9.314;2024-01-16T08:12:38;55.80;;;2.47;;
1308;SDS011;647;48.840;9.314;2024-01-16T08:15:05;55.90;;;2.95;;
1308;SDS011;647;48.840;9.314;2024-01-16T08:17:33;55.67;;;2.50;;
1308;SDS011;647;48.840;9.314;2024-01-16T08:20:00;55.75;;;2.88;;
1308;SDS011;647;48.840;9.314;2024-01-16T08:22:28;55.67;;;2.63;;
1308;SDS011;647;48.840;9.314;2024-01-16T08:24:55;56.97;;;3.40;;
1308;SDS011;647;48.840;9.314;2024-01-16T08:27:23;55.78;;;2.50;;
1308;SDS011;647;48.840;9.314;2024-01-16T08:29:50;55.78;;;2.60;;
1308;SDS011;647;48.840;9.314;2024-01-16T08:32:18;55.80;;;2.60;;
1308;SDS011;647;48.840;9.314;2024-01-16T08:34:45;55.60;;;2.53;;
1308;SDS011;647;48.840;9.314;2024-01-16T08:37:12;55.90;;;2.70;;
1308;SDS011;647;48.840;9.314;2024-01-16T08:39:39;55.80;;;3.00;;
1308;SDS011;647;48.840;9.314;2024-01-16T08:42:06;55.80;;;2.80;;
1308;SDS011;647;48.840;9.314;2024-01-16T08:44:38;67.13;;;3.85;;
1308;SDS011;647;48.840;9.314;2024-01-16T08:47:05;55.67;;;2.70;;
1308;SDS011;647;48.840;9.314;2024-01-16T08:49:32;55.60;;;2.50;;
1308;SDS011;647;48.840;9.314;2024-01-16T08:51:59;55.60;;;2.60;;
1308;SDS011;647;48.840;9.314;2024-01-16T08:54:27;55.60;;;2.60;;
1308;SDS011;647;48.840;9.314;2024-01-16T08:56:54;55.50;;;2.50;;
1308;SDS011;647;48.840;9.314;2024-01-16T08:59:22;55.67;;;2.40;;
1308;SDS011;647;48.840;9.314;2024-01-16T09:01:51;55.80;;;2.60;;
1308;SDS011;647;48.840;9.314;2024-01-16T09:04:18;55.80;;;2.60;;
1308;SDS011;647;48.840;9.314;2024-01-16T09:06:45;55.70;;;3.05;;
1308;SDS011;647;48.840;9.314;2024-01-16T09:09:12;55.70;;;2.50;;
1308;SDS011;647;48.840;9.314;2024-01-16T09:11:41;55.78;;;2.40;;
1308;SDS011;647;48.840;9.314;2024-01-16T09:14:08;55.72;;;2.63;;
1308;SDS011;647;48.840;9.314;2024-01-16T09:16:35;55.80;;;2.35;;
1308;SDS011;647;48.840;9.314;2024-01-16T09:19:03;55.85;;;2.88;;
1308;SDS011;647;48.840;9.314;2024-01-16T09:21:30;55.80;;;2.72;;
1308;SDS011;647;48.840;9.314;2024-01-16T09:23:57;55.80;;;2.47;;
1308;SDS011;647;48.840;9.314;2024-01-16T09:26:25;55.67;;;2.60;;
1308;SDS011;647;48.840;9.314;2024-01-16T09:28:53;55.70;;;2.70;;
1308;SDS011;647;48.840;9.314;2024-01-16T09:31:20;55.85;;;2.63;;
1308;SDS011;647;48.840;9.314;2024-01-16T09:33:47;55.70;;;2.70;;
1308;SDS011;647;48.840;9.314;2024-01-16T09:36:15;55.70;;;2.50;;
1308;SDS011;647;48.840;9.314;2024-01-16T09:38:42;56.00;;;2.50;;
1308;SDS011;647;48.840;9.314;2024-01-16T09:41:10;55.78;;;2.85;;
1308;SDS011;647;48.840;9.314;2024-01-16T09:43:37;55.78;;;2.90;;
1308;SDS011;647;48.840;9.314;2024-01-16T09:46:04;55.70;;;2.80;;
1308;SDS011;647;48.840;9.314;2024-01-16T09:48:32;55.67;;;2.60;;
1308;SDS011;647;48.840;9.314;2024-01-16T09:50:59;56.00;;;2.75;;
1308;SDS011;647;48.840;9.314;2024-01-16T09:53:28;55.88;;;2.72;;
1308;SDS011;647;48.840;9.314;2024-01-16T09:55:55;55.95;;;2.40;;
1308;SDS011;647;48.840;9.314;2024-01-16T09:58:26;55.70;;;2.95;;
1308;SDS011;647;48.840;9.314;2024-01-16T10:00:55;55.90;;;2.88;;
1308;SDS011;647;48.840;9.314;2024-01-16T10:03:22;56.00;;;2.70;;
1308;SDS011;647;48.840;9.314;2024-01-16T10:05:49;55.97;;;2.90;;
1308;SDS011;647;48.840;9.314;2024-01-16T10:08:16;55.78;;;2.80;;
1308;SDS011;647;48.840;9.314;2024-01-16T10:10:47;55.80;;;2.95;;
1308;SDS011;647;48.840;9.314;2024-01-16T10:13:14;56.10;;;2.97;;
1308;SDS011;647;48.840;9.314;2024-01-16T10:15:42;56.00;;;2.60;;
1308;SDS011;647;48.840;9.314;2024-01-16T10:18:21;55.70;;;2.20;;
1308;SDS011;647;48.840;9.314;2024-01-16T10:20:49;55.78;;;2.80;;
1308;SDS011;647;48.840;9.314;2024-01-16T10:23:21;56.10;;;2.80;;
1308;SDS011;647;48.840;9.314;2024-01-16T10:25:57;55.97;;;2.38;;
1308;SDS011;647;48.840;9.314;2024-01-16T10:28:31;55.67;;;2.28;;
1308;SDS011;647;48.840;9.314;2024-01-16T10:31:01;55.95;;;2.72;;
1308;SDS011;647;48.840;9.314;2024-01-16T10:33:28;55.65;;;2.60;;
1308;SDS011;647;48.840;9.314;2024-01-16T10:36:01;55.78;;;2.80;;
1308;SDS011;647;48.840;9.314;2024-01-16T10:38:34;55.63;;;2.60;;
1308;SDS011;647;48.840;9.314;2024-01-16T10:41:11;55.97;;;2.60;;
1308;SDS011;647;48.840;9.314;2024-01-16T10:43:38;55.90;;;2.47;;
1308;SDS011;647;48.840;9.314;2024-01-16T10:46:09;55.67;;;2.50;;
1308;SDS011;647;48.840;9.314;2024-01-16T10:48:37;55.97;;;2.50;;
1308;SDS011;647;48.840;9.314;2024-01-16T10:51:05;55.83;;;2.35;;
1308;SDS011;647;48.840;9.314;2024-01-16T10:53:33;56.08;;;2.60;;
1308;SDS011;647;48.840;9.314;2024-01-16T10:56:01;56.07;;;2.93;;
1308;SDS011;647;48.840;9.314;2024-01-16T10:58:31;55.63;;;2.30;;
1308;SDS011;647;48.840;9.314;2024-01-16T11:01:02;55.77;;;2.20;;
1308;SDS011;647;48.840;9.314;2024-01-16T11:03:34;55.90;;;2.50;;
1308;SDS011;647;48.840;9.314;2024-01-16T11:06:03;57.00;;;3.07;;
1308;SDS011;647;48.840;9.314;2024-01-16T11:08:31;55.67;;;2.50;;
1308;SDS011;647;48.840;9.314;2024-01-16T11:10:59;56.00;;;2.30;;
1308;SDS011;647;48.840;9.314;2024-01-16T11:13:26;55.43;;;1.80;;
1308;SDS011;647;48.840;9.314;2024-01-16T11:15:55;56.20;;;2.60;;
1308;SDS011;647;48.840;9.314;2024-01-16T11:18:22;55.97;;;2.00;;
1308;SDS011;647;48.840;9.314;2024-01-16T11:20:50;56.00;;;2.17;;
1308;SDS011;647;48.840;9.314;2024-01-16T11:23:19;56.07;;;1.90;;
1308;SDS011;647;48.840;9.314;2024-01-16T11:25:46;56.10;;;2.10;;
1308;SDS011;647;48.840;9.314;2024-01-16T11:28:13;55.90;;;2.10;;
1308;SDS011;647;48.840;9.314;2024-01-16T11:30:41;56.00;;;2.20;;
1308;SDS011;647;48.840;9.314;2024-01-16T11:33:17;55.83;;;1.80;;
1308;SDS011;647;48.840;9.314;2024-01-16T11:36:06;55.87;;;2.30;;
1308;SDS011;647;48.840;9.314;2024-01-16T11:38:55;55.80;;;2.03;;
1308;SDS011;647;48.840;9.314;2024-01-16T11:44:04;55.90;;;2.00;;
1308;SDS011;647;48.840;9.314;2024-01-16T11:46:40;55.87;;;2.20;;
1308;SDS011;647;48.840;9.314;2024-01-16T11:49:26;55.90;;;1.80;;
1308;SDS011;647;48.840;9.314;2024-01-16T11:51:56;55.73;;;1.97;;
1308;SDS011;647;48.840;9.314;2024-01-16T11:54:23;55.80;;;1.90;;
1308;SDS011;647;48.840;9.314;2024-01-16T12:02:21;55.47;;;1.80;;
1308;SDS011;647;48.840;9.314;2024-01-16T12:04:53;57.03;;;2.50;;
1308;SDS011;647;48.840;9.314;2024-01-16T12:07:22;55.70;;;2.13;;
1308;SDS011;647;48.840;9.314;2024-01-16T12:09:50;56.00;;;2.00;;
1308;SDS011;647;48.840;9.314;2024-01-16T12:12:17;55.67;;;1.80;;
1308;SDS011;647;48.840;9.314;2024-01-16T12:14:50;55.70;;;1.70;;
1308;SDS011;647;48.840;9.314;2024-01-16T12:17:19;55.80;;;2.10;;
1308;SDS011;647;48.840;9.314;2024-01-16T12:19:46;55.90;;;2.17;;
1308;SDS011;647;48.840;9.314;2024-01-16T12:22:15;55.70;;;2.00;;
1308;SDS011;647;48.840;9.314;2024-01-16T12:24:44;55.70;;;2.10;;
1308;SDS011;647;48.840;9.314;2024-01-16T12:27:12;55.67;;;2.10;;
1308;SDS011;647;48.840;9.314;2024-01-16T12:29:40;55.50;;;1.90;;
1308;SDS011;647;48.840;9.314;2024-01-16T12:32:08;55.57;;;1.97;;
1308;SDS011;647;48.840;9.314;2024-01-16T12:34:42;55.70;;;1.80;;
1308;SDS011;647;48.840;9.314;2024-01-16T12:37:10;56.00;;;1.90;;
1308;SDS011;647;48.840;9.314;2024-01-16T12:39:37;55.70;;;2.23;;
1308;SDS011;647;48.840;9.314;2024-01-16T12:42:07;56.00;;;1.90;;
1308;SDS011;647;48.840;9.314;2024-01-16T12:44:36;55.70;;;1.80;;
1308;SDS011;647;48.840;9.314;2024-01-16T12:47:03;55.70;;;1.77;;
1308;SDS011;647;48.840;9.314;2024-01-16T12:49:30;55.60;;;1.90;;
1308;SDS011;647;48.840;9.314;2024-01-16T12:54:44;55.87;;;1.80;;
1308;SDS011;647;48.840;9.314;2024-01-16T12:57:17;55.70;;;1.80;;
1308;SDS011;647;48.840;9.314;2024-01-16T12:59:45;55.87;;;2.00;;
1308;SDS011;647;48.840;9.314;2024-01-16T13:02:19;55.60;;;1.90;;
1308;SDS011;647;48.840;9.314;2024-01-16T13:04:46;55.40;;;1.83;;
1308;SDS011;647;48.840;9.314;2024-01-16T13:07:15;55.57;;;1.87;;
1308;SDS011;647;48.840;9.314;2024-01-16T13:09:43;56.27;;;2.03;;
1308;SDS011;647;48.840;9.314;2024-01-16T13:12:10;55.43;;;1.80;;
1308;SDS011;647;48.840;9.314;2024-01-16T13:14:47;60.80;;;2.10;;
1308;SDS011;647;48.840;9.314;2024-01-16T13:17:14;55.40;;;1.70;;
1308;SDS011;647;48.840;9.314;2024-01-16T13:19:41;55.70;;;1.90;;
1308;SDS011;647;48.840;9.314;2024-01-16T13:22:08;55.80;;;2.10;;
1308;SDS011;647;48.840;9.314;2024-01-16T13:24:35;55.67;;;1.90;;
1308;SDS011;647;48.840;9.314;2024-01-16T13:27:02;55.60;;;1.80;;
1308;SDS011;647;48.840;9.314;2024-01-16T13:29:31;55.80;;;1.90;;
1308;SDS011;647;48.840;9.314;2024-01-16T13:32:02;55.37;;;1.80;;
1308;SDS011;647;48.840;9.314;2024-01-16T13:34:29;55.67;;;1.90;;
1308;SDS011;647;48.840;9.314;2024-01-16T13:36:57;55.50;;;1.70;;
1308;SDS011;647;48.840;9.314;2024-01-16T13:39:25;55.37;;;1.70;;
1308;SDS011;647;48.840;9.314;2024-01-16T13:41:52;55.57;;;2.10;;
1308;SDS011;647;48.840;9.314;2024-01-16T13:44:19;55.67;;;2.03;;
1308;SDS011;647;48.840;9.314;2024-01-16T13:46:46;55.57;;;1.70;;
1308;SDS011;647;48.840;9.314;2024-01-16T13:49:14;55.37;;;1.90;;
1308;SDS011;647;48.840;9.314;2024-01-16T13:51:43;55.87;;;1.90;;
1308;SDS011;647;48.840;9.314;2024-01-16T13:54:10;55.47;;;1.80;;
1308;SDS011;647;48.840;9.314;2024-01-16T13:56:37;55.80;;;1.80;;
1308;SDS011;647;48.840;9.314;2024-01-16T13:59:05;55.80;;;2.10;;
1308;SDS011;647;48.840;9.314;2024-01-16T14:01:32;55.60;;;2.23;;
1308;SDS011;647;48.840;9.314;2024-01-16T14:03:59;55.90;;;2.10;;
1308;SDS011;647;48.840;9.314;2024-01-16T14:06:27;55.77;;;2.10;;
1308;SDS011;647;48.840;9.314;2024-01-16T14:08:54;56.10;;;2.00;;
1308;SDS011;647;48.840;9.314;2024-01-16T14:11:22;56.07;;;2.00;;
1308;SDS011;647;48.840;9.314;2024-01-16T14:13:49;56.27;;;2.10;;
1308;SDS011;647;48.840;9.314;2024-01-16T14:16:18;56.47;;;2.30;;
1308;SDS011;647;48.840;9.314;2024-01-16T14:18:45;56.07;;;2.10;;
1308;SDS011;647;48.840;9.314;2024-01-16T14:21:12;56.07;;;1.93;;
1308;SDS011;647;48.840;9.314;2024-01-16T14:23:40;55.73;;;1.90;;
1308;SDS011;647;48.840;9.314;2024-01-16T14:26:07;56.90;;;2.20;;
1308;SDS011;647;48.840;9.314;2024-01-16T14:28:34;55.77;;;2.10;;
1308;SDS011;647;48.840;9.314;2024-01-16T14:31:02;55.97;;;1.90;;
1308;SDS011;647;48.840;9.314;2024-01-16T14:33:29;55.87;;;2.00;;
1308;SDS011;647;48.840;9.314;2024-01-16T14:35:56;55.87;;;2.10;;
1308;SDS011;647;48.840;9.314;2024-01-16T14:38:24;56.30;;;2.20;;
1308;SDS011;647;48.840;9.314;2024-01-16T14:40:52;55.97;;;1.97;;
1308;SDS011;647;48.840;9.314;2024-01-16T14:43:21;55.83;;;2.00;;
1308;SDS011;647;48.840;9.314;2024-01-16T14:45:48;56.00;;;2.00;;
1308;SDS011;647;48.840;9.314;2024-01-16T14:48:15;55.73;;;2.00;;
1308;SDS011;647;48.840;9.314;2024-01-16T14:50:42;55.57;;;1.80;;
1308;SDS011;647;48.840;9.314;2024-01-16T14:53:10;55.90;;;2.00;;
1308;SDS011;647;48.840;9.314;2024-01-16T14:55:37;55.70;;;2.00;;
1308;SDS011;647;48.840;9.314;2024-01-16T14:58:06;55.73;;;1.90;;
1308;SDS011;647;48.840;9.314;2024-01-16T15:00:33;58.43;;;2.47;;
1308;SDS011;647;48.840;9.314;2024-01-16T15:03:00;56.07;;;2.33;;
1308;SDS011;647;48.840;9.314;2024-01-16T15:05:28;55.83;;;2.20;;
1308;SDS011;647;48.840;9.314;2024-01-16T15:07:55;55.80;;;2.00;;
1308;SDS011;647;48.840;9.314;2024-01-16T15:10:22;55.70;;;1.80;;
1308;SDS011;647;48.840;9.314;2024-01-16T15:12:49;55.30;;;1.90;;
1308;SDS011;647;48.840;9.314;2024-01-16T15:15:18;55.10;;;2.13;;
1308;SDS011;647;48.840;9.314;2024-01-16T15:17:45;56.07;;;2.07;;
1308;SDS011;647;48.840;9.314;2024-01-16T15:20:13;56.03;;;2.40;;
1308;SDS011;647;48.840;9.314;2024-01-16T15:22:41;56.23;;;2.63;;
1308;SDS011;647;48.840;9.314;2024-01-16T15:25:09;56.30;;;2.47;;
1308;SDS011;647;48.840;9.314;2024-01-16T15:27:38;56.03;;;2.50;;
1308;SDS011;647;48.840;9.314;2024-01-16T15:30:05;56.10;;;2.50;;